Air Navigation Services of Czech Republic  
Last data update:  09.12.2018 19:39:09 UTC Česká verze
   METEO Page displayed:  09.12.2018 19:39:36 UTC  
help
METAR EDDB 091920Z 27019KT 9999 SCT020 BKN028 07/04 Q0997 TEMPO 26015G25KT=
METAR COR EDDC 091920Z 27013KT 240V320 9999 -SHRA BKN021 BKN033 06/03 Q1000 TEMPO 27015G25KT=
METAR EDDE 091920Z 27015KT 9999 FEW028 SCT040 05/03 Q1004 TEMPO 26015G25KT=
METAR EDDF 091920Z 27016KT 9999 -SHRA FEW005 FEW025CB SCT038 07/04 Q1010 NOSIG=
METAR EDDM 091920Z 26018G29KT 9999 -RA FEW012 BKN017 OVC022 06/04 Q1008 NOSIG=
METAR EDDN 091920Z 28011KT 9999 FEW018 BKN046 06/03 Q1007 NOSIG=
METAR EDDP 091920Z 27019G29KT 9999 FEW027 BKN032 07/03 Q1002 NOSIG=
METAR EDDT 091920Z 27017KT 9999 SCT020 BKN032 07/03 Q0997 TEMPO 27015G25KT=
METAR EDQM 091750Z 27011KT 9999 BKN014 OVC018 03/02 Q1002=
METAR EPBY 091930Z 24012KT 9999 FEW008 SCT010 BKN018 06/05 Q0992 =
METAR EPGD 091930Z 25009KT 9999 FEW004 SCT018 05/04 Q0990 =
METAR EPKK 091930Z 23004KT 9999 BKN030 04/04 Q0998 =
METAR EPKT 091930Z 24015KT 9999 -SHRA SCT018CB OVC022 06/04 Q0998 =
METAR EPLL 091930Z 23009KT 9999 SCT008 BKN010 06/05 Q0995 =
METAR EPPO 091930Z 25010KT 9999 BKN011 OVC036 06/05 Q0994 R10/290095 =
METAR EPRZ 091930Z 20014KT 9999 OVC028 04/01 Q0999 =
METAR EPWA 091930Z 25005KT 220V280 9999 FEW011 SCT047 05/04 Q0994 NOSIG=
METAR EPWR 091930Z 26010KT 9999 SCT036 06/03 Q0998 =
METAR LHBP 091930Z VRB02KT 9999 BKN045 02/01 Q1004 NOSIG=
METAR LHSM NIL
METAR LKBC 091930Z AUTO 26012KT 9999 OVC023 06/02 Q1001=
METAR LKCV 091900Z 28009KT 9999 -RA FEW017 OVC031 06/05 Q1001 RMK BLACK=
METAR LKKB 091900Z 26012KT 9999 BKN031 06/03 Q1001 NOSIG RMK BLU BLU=
METAR LKKU NIL
SPECI LKKV 091914Z 26012KT 230V300 9999 -RA OVC015 03/01 Q1002 RMK REG QNH 0996=
METAR LKLN 091930Z AUTO 30007KT 200V350 9999 FEW020 BKN025 OVC033 06/02 Q1004=
METAR LKMT 091930Z 22012KT 9999 SCT026 06/03 Q1000 NOSIG RMK REG QNH 0996=
METAR LKNA 091900Z 26011KT CAVOK 04/01 Q1000 NOSIG RMK BLU BLU=
METAR LKPD 091900Z 27012KT 9999 -RA SCT023 OVC030 05/04 Q1000 NOSIG RMK BLU BLU=
METAR LKPR 091930Z 26013KT 9999 FEW015 SCT025 05/02 Q1001 NOSIG RMK REG QNH 0996=
METAR LKTB 091930Z 20010KT CAVOK 04/02 Q1002 NOSIG RMK REG QNH 0996=
METAR LKVO NIL
METAR LOWI 091920Z 04005KT 9999 SHRA FEW007 BKN015 OVC030 04/03 Q1010 TEMPO -SHRA BKN010=
METAR LOWL 091920Z AUTO 26019KT 9999 -DZ FEW020 BKN028 BKN036 07/04 Q1005 NOSIG=
METAR LOWS 091920Z 29016KT 9999 -SHRA FEW020 BKN032 BKN060 07/02 Q1007 TEMPO SHRA=
METAR LOWW 091920Z 28014KT 9999 FEW050 SCT070 08/02 Q1003 WS R34 NOSIG=
METAR LZIB 091930Z 24006KT 210V270 CAVOK 08/02 Q1004=
METAR LZKZ 091930Z 19005KT 9999 BKN005 OVC009 02/01 Q1003=
METAR LZMC 091900Z 23006KT 9999 SCT049 BKN080 06/02 Q1004=
METAR LZPP 091930Z 21005KT 180V240 9999 -RA BKN045 OVC080 06/03 Q1003=
METAR LZSL 091930Z 00000KT 1200 R36/P2000N -RA BR FEW002 OVC029 01/00 Q1002=
METAR LZTT 091930Z 16003KT 120V190 9999 FEW008 BKN012 OVC030 00/M01 Q0999=
METAR LZZI 091930Z 28006KT 5000 -RA BR BKN023 OVC029 04/04 Q1001=